Time;durP1;ratioP1;P1;durP2;ratioP2;P2;SDS_P1;SDS_P2;PMS_P1;PMS_P2;Temp;Humidity;BMP_temperature;BMP_pressure;BME280_temperature;BME280_humidity;BME280_pressure;Samples;Min_cycle;Max_cycle;Signal;HPM_P1;HPM_P2
2022/12/21 00:01:46;;;;;;;20.67;8.77;;;;;;;-142.75;100.00;77320.34;4933026;28;20353;-65
2022/12/21 00:04:12;;;;;;;20.58;8.80;;;;;;;-142.75;100.00;77347.91;4956271;28;20165;-66
2022/12/21 00:06:38;;;;;;;21.42;9.25;;;;;;;-142.75;100.00;77320.34;4960030;28;20351;-66
2022/12/21 00:09:06;;;;;;;21.80;9.02;;;;;;;-142.75;100.00;77310.50;4961912;28;20915;-66
2022/12/21 00:11:33;;;;;;;16.90;9.15;;;;;;;-142.75;100.00;77308.53;4961854;28;20895;-66
2022/12/21 00:14:01;;;;;;;21.23;9.57;;;;;;;-142.75;100.00;77298.69;4948851;28;20049;-66
2022/12/21 00:16:29;;;;;;;21.05;9.07;;;;;;;-142.75;100.00;77296.72;4953477;28;20091;-66
2022/12/21 00:18:56;;;;;;;16.45;8.52;;;;;;;-142.75;100.00;77294.75;4947678;28;20064;-66
2022/12/21 00:21:24;;;;;;;19.48;9.00;;;;;;;-142.75;100.00;77306.56;4951820;28;20017;-65
2022/12/21 00:23:51;;;;;;;19.15;10.10;;;;;;;-142.75;100.00;77300.66;4933379;28;20037;-66
2022/12/21 00:26:20;;;;;;;20.10;9.27;;;;;;;-142.75;100.00;77296.72;4935130;28;20812;-66
2022/12/21 00:28:45;;;;;;;20.83;9.80;;;;;;;-142.75;100.00;77306.56;4967152;28;20535;-66
2022/12/21 00:31:17;;;;;;;20.40;9.32;;;;;;;-142.75;100.00;77308.53;4949669;28;20022;-66
2022/12/21 00:33:44;;;;;;;19.30;9.07;;;;;;;-142.75;100.00;77292.78;4960300;28;20021;-66
2022/12/21 00:36:11;;;;;;;20.13;9.00;;;;;;;-142.75;100.00;77294.75;4953448;28;20026;-65
2022/12/21 00:38:36;;;;;;;21.58;9.05;;;;;;;-142.75;100.00;77302.63;4961281;28;20018;-65
2022/12/21 00:41:05;;;;;;;19.63;9.02;;;;;;;-142.75;100.00;77294.75;4965543;28;20541;-66
2022/12/21 00:43:33;;;;;;;23.35;8.63;;;;;;;-142.75;100.00;77279.00;4948128;28;20103;-66
2022/12/21 00:45:59;;;;;;;22.13;8.63;;;;;;;-142.75;100.00;77302.63;4961239;28;20018;-66
2022/12/21 00:48:25;;;;;;;;;;;;;;;-142.75;100.00;77308.53;4944549;28;20036;-66
2022/12/21 00:50:51;;;;;;;23.85;10.25;;;;;;;-142.75;100.00;77302.63;4956860;28;19955;-66
2022/12/21 00:53:17;;;;;;;27.52;11.55;;;;;;;-142.75;100.00;77298.69;4962841;28;20517;-66
2022/12/21 00:55:58;;;;;;;;;;;;;;;-142.75;100.00;77310.50;4949862;28;20041;-67
2022/12/21 00:58:26;;;;;;;26.05;11.52;;;;;;;-142.75;100.00;77326.25;4963186;28;19917;-66
2022/12/21 01:00:53;;;;;;;20.65;11.25;;;;;;;-142.75;100.00;77357.75;4957808;28;20030;-66
2022/12/21 01:03:19;;;;;;;26.65;12.45;;;;;;;-142.75;100.00;77357.75;4957607;28;20022;-66
2022/12/21 01:05:46;;;;;;;;;;;;;;;-142.75;100.00;77377.44;4953487;28;20048;-66
2022/12/21 01:08:11;;;;;;;25.85;10.98;;;;;;;-142.75;100.00;77387.28;4955753;28;20000;-66
2022/12/21 01:10:37;;;;;;;22.15;10.70;;;;;;;-142.75;100.00;77367.59;4945601;28;20537;-66
2022/12/21 01:13:02;;;;;;;24.13;10.50;;;;;;;-142.75;100.00;77343.97;4945507;28;20344;-66
2022/12/21 01:15:28;;;;;;;27.48;12.10;;;;;;;-142.75;100.00;77330.19;4957391;28;20351;-66
2022/12/21 01:17:53;;;;;;;24.40;11.25;;;;;;;-142.75;100.00;77332.16;4956191;28;20135;-66
2022/12/21 01:20:19;;;;;;;23.60;11.55;;;;;;;-142.75;100.00;77334.13;4957972;28;20339;-66
2022/12/21 01:22:44;;;;;;;22.75;10.57;;;;;;;-142.75;100.00;77361.69;4947252;28;20372;-65
2022/12/21 01:25:10;;;;;;;19.83;10.45;;;;;;;-142.75;100.00;77361.69;4959414;28;20384;-66
2022/12/21 01:27:35;;;;;;;20.92;10.95;;;;;;;-142.75;100.00;77361.69;4954164;28;20413;-66
2022/12/21 01:30:02;;;;;;;19.15;9.85;;;;;;;-142.75;100.00;77369.56;4946989;28;20338;-65
2022/12/21 01:32:27;;;;;;;22.17;10.00;;;;;;;-142.75;100.00;77381.38;4956534;28;20087;-66
2022/12/21 01:34:53;;;;;;;21.20;12.38;;;;;;;-142.75;100.00;77371.53;4956980;28;20344;-66
2022/12/21 01:37:18;;;;;;;19.60;11.10;;;;;;;-142.75;100.00;77375.47;4968877;28;20340;-66
2022/12/21 01:39:44;;;;;;;24.88;11.80;;;;;;;-142.75;100.00;77399.09;4960344;28;20422;-66
2022/12/21 01:42:12;;;;;;;25.55;11.38;;;;;;;-142.75;100.00;77385.31;4947627;28;20387;-66
2022/12/21 01:45:02;;;;;;;26.35;11.65;;;;;;;-142.75;100.00;77391.22;4953137;28;20112;-66
2022/12/21 01:47:45;;;;;;;31.80;12.63;;;;;;;-142.75;100.00;77393.19;4970069;28;20029;-66
2022/12/21 01:50:53;;;;;;;25.30;12.18;;;;;;;-142.75;100.00;77387.28;4954876;28;20219;-66
2022/12/21 01:53:27;;;;;;;25.55;13.50;;;;;;;-142.75;100.00;77385.31;4968474;28;20599;-67
2022/12/21 01:55:55;;;;;;;29.30;12.65;;;;;;;-142.75;100.00;77391.22;4960978;28;20136;-66
2022/12/21 01:58:24;;;;;;;27.02;12.57;;;;;;;-142.75;100.00;77381.38;4961161;28;20025;-66
2022/12/21 02:00:50;;;;;;;33.30;13.95;;;;;;;-142.75;100.00;77381.38;4952805;28;20034;-64
2022/12/21 02:03:19;;;;;;;29.75;13.95;;;;;;;-142.75;100.00;77387.28;4960612;28;20040;-67
2022/12/21 02:05:58;;;;;;;27.42;13.27;;;;;;;-142.75;100.00;77387.28;4956287;28;20112;-66
2022/12/21 02:08:23;;;;;;;27.58;13.45;;;;;;;-142.75;100.00;77397.13;4960457;28;20804;-66
2022/12/21 02:10:51;;;;;;;25.77;13.18;;;;;;;-142.75;100.00;77389.25;4965565;28;20026;-66
2022/12/21 02:13:17;;;;;;;29.65;13.18;;;;;;;-142.75;100.00;77405.00;4961199;28;20088;-66
2022/12/21 02:19:04;;;;;;;28.38;14.18;;;;;;;-142.75;100.00;77389.25;4980472;28;20307;-67
2022/12/21 02:21:37;;;;;;;33.85;13.57;;;;;;;-142.75;100.00;77399.09;4903278;28;20036;-68
2022/12/21 02:24:18;;;;;;;27.65;12.68;;;;;;;-142.75;100.00;77385.31;4962299;28;20017;-67
2022/12/21 02:26:52;;;;;;;33.28;14.13;;;;;;;-142.75;100.00;77385.31;4976985;28;20128;-67
2022/12/21 02:29:49;;;;;;;33.70;14.40;;;;;;;-142.75;100.00;77393.19;4972041;28;20647;-66
2022/12/21 02:32:29;;;;;;;27.02;12.93;;;;;;;-142.75;100.00;77379.41;4976422;28;20029;-67
2022/12/21 02:35:18;;;;;;;27.27;12.45;;;;;;;-142.75;100.00;77381.38;4984520;28;20549;-65
2022/12/21 02:38:16;;;;;;;36.28;12.50;;;;;;;-142.75;100.00;77387.28;4974398;28;20025;-67
2022/12/21 02:41:02;;;;;;;31.48;12.13;;;;;;;-142.75;100.00;77397.13;4976022;28;20033;-67
2022/12/21 02:46:41;;;;;;;50.00;14.75;;;;;;;-142.75;100.00;77397.13;4978033;28;20091;-67
2022/12/21 02:49:12;;;;;;;29.90;13.70;;;;;;;-142.75;100.00;77393.19;4971805;28;20021;-67
2022/12/21 02:52:07;;;;;;;27.38;12.60;;;;;;;-142.75;100.00;77408.94;4970496;28;20665;-67
2022/12/21 02:54:41;;;;;;;52.35;14.10;;;;;;;-142.75;100.00;77406.97;4955156;28;20037;-67
2022/12/21 02:57:07;;;;;;;29.50;12.00;;;;;;;-142.75;100.00;77395.16;4947658;28;20558;-67
2022/12/21 02:59:36;;;;;;;;;;;;;;;-142.75;100.00;77391.22;4965986;28;20029;-67
2022/12/21 03:02:17;;;;;;;25.52;11.85;;;;;;;-142.75;100.00;77403.03;4965572;28;20568;-67
2022/12/21 03:05:01;;;;;;;43.20;13.20;;;;;;;-142.75;100.00;77403.03;4955529;28;20126;-68
2022/12/21 03:07:43;;;;;;;30.08;13.13;;;;;;;-142.75;100.00;77403.03;4949756;28;20091;-66
2022/12/21 03:10:20;;;;;;;26.80;12.02;;;;;;;-142.75;100.00;77401.06;4982004;28;20060;-67
2022/12/21 03:13:18;;;;;;;35.25;13.07;;;;;;;-142.75;100.00;77406.97;4978600;28;20025;-67
2022/12/21 03:15:52;;;;;;;31.33;13.38;;;;;;;-142.75;100.00;77393.19;4978102;28;20554;-67
2022/12/21 03:18:58;;;;;;;65.05;13.52;;;;;;;-142.75;100.00;77395.16;4980524;28;20033;-67
2022/12/21 03:21:33;;;;;;;34.15;13.38;;;;;;;-142.75;100.00;77408.94;4939281;28;20071;-67
2022/12/21 03:24:35;;;;;;;37.33;12.93;;;;;;;-142.75;100.00;77397.13;4963749;28;20542;-66
2022/12/21 03:27:07;;;;;;;26.05;11.90;;;;;;;-142.75;100.00;77393.19;4967830;28;20029;-67
2022/12/21 03:29:39;;;;;;;33.53;13.50;;;;;;;-142.75;100.00;77408.94;4968167;28;20531;-65
2022/12/21 03:32:24;;;;;;;31.30;13.20;;;;;;;-142.75;100.00;77405.00;4974989;28;20032;-67
2022/12/21 03:34:52;;;;;;;47.85;13.15;;;;;;;-142.75;100.00;77406.97;4980770;28;20616;-66
2022/12/21 03:37:23;;;;;;;25.55;12.88;;;;;;;-142.75;100.00;77406.97;4979073;28;20055;-67
2022/12/21 03:40:07;;;;;;;81.93;15.73;;;;;;;-142.75;100.00;77408.94;4970823;28;20033;-67
2022/12/21 03:42:36;;;;;;;31.33;13.40;;;;;;;-142.75;100.00;77422.72;4973057;28;20534;-66
2022/12/21 03:45:25;;;;;;;58.53;13.93;;;;;;;-142.75;100.00;77424.69;4967168;28;20052;-67
2022/12/21 03:47:58;;;;;;;39.40;12.70;;;;;;;-142.75;100.00;77420.75;4953259;28;20091;-66
2022/12/21 03:50:28;;;;;;;27.90;12.50;;;;;;;-142.75;100.00;77416.81;4969222;28;20033;-67
2022/12/21 03:53:18;;;;;;;28.67;13.65;;;;;;;-142.75;100.00;77403.03;4950466;28;20672;-66
2022/12/21 03:55:48;;;;;;;35.58;12.38;;;;;;;-142.75;100.00;77416.81;4956818;28;20156;-67
2022/12/21 03:58:14;;;;;;;37.08;12.73;;;;;;;-142.75;100.00;77424.69;4973751;28;20099;-67
2022/12/21 04:00:49;;;;;;;35.25;12.82;;;;;;;-142.75;100.00;77434.53;4970046;28;20025;-67
2022/12/21 04:03:39;;;;;;;35.93;12.83;;;;;;;-142.75;100.00;77424.69;4971670;28;20584;-66
2022/12/21 04:06:15;;;;;;;72.07;13.80;;;;;;;-142.75;100.00;77444.38;4973828;28;20051;-67
2022/12/21 04:08:42;;;;;;;24.80;12.93;;;;;;;-142.75;100.00;77444.38;4976928;28;20037;-67
2022/12/21 04:12:35;;;;;;;37.40;13.03;;;;;;;-142.75;100.00;77460.13;4973308;28;20048;-67
2022/12/21 04:13:53;;;;;;;35.73;12.53;;;;;;;-142.75;100.00;77450.28;4971597;28;20600;-66
2022/12/21 04:16:18;;;;;;;36.10;11.88;;;;;;;-142.75;100.00;77448.34;4970752;28;20546;-67
2022/12/21 04:21:28;;;;;;;23.23;12.50;;;;;;;-142.75;100.00;77458.16;4979928;28;20610;-66
2022/12/21 04:29:21;;;;;;;24.40;12.70;;;;;;;-142.75;100.00;77442.41;4972735;28;20172;-68
2022/12/21 04:31:47;;;;;;;30.35;13.02;;;;;;;-142.75;100.00;77466.03;4963047;28;20315;-67
2022/12/21 04:34:12;;;;;;;31.40;13.00;;;;;;;-142.75;100.00;77464.09;4959763;28;20351;-67
2022/12/21 04:39:22;;;;;;;26.67;12.30;;;;;;;-142.75;100.00;77470.00;4982678;28;20517;-67
2022/12/21 04:41:48;;;;;;;34.78;12.35;;;;;;;-142.75;100.00;77475.91;4982310;28;20613;-67
2022/12/21 04:44:13;;;;;;;25.55;13.38;;;;;;;-142.75;100.00;77473.94;4954298;28;20364;-67
2022/12/21 04:46:39;;;;;;;35.53;14.35;;;;;;;-142.75;100.00;77485.75;4976456;28;20468;-67
2022/12/21 04:49:04;;;;;;;30.15;13.85;;;;;;;-142.75;100.00;77471.97;4978212;28;20312;-67
2022/12/21 04:51:30;;;;;;;28.35;14.45;;;;;;;-142.75;100.00;77470.00;4984582;28;20296;-67
2022/12/21 04:53:55;;;;;;;53.22;15.45;;;;;;;-142.75;100.00;77466.03;4968122;28;20307;-67
2022/12/21 04:56:21;;;;;;;41.78;15.18;;;;;;;-142.75;100.00;77454.25;4948337;28;20295;-67
2022/12/21 04:58:47;;;;;;;48.13;15.27;;;;;;;-142.75;100.00;77450.28;4956698;28;20454;-67
2022/12/21 05:01:18;;;;;;;34.47;13.27;;;;;;;-142.75;100.00;77444.38;4944517;28;20021;-66
2022/12/21 05:03:45;;;;;;;27.40;15.07;;;;;;;-142.75;100.00;77436.50;4977227;28;20110;-66
2022/12/21 05:06:13;;;;;;;30.43;14.77;;;;;;;-142.75;100.00;77450.28;4981371;28;20052;-67
2022/12/21 05:08:39;;;;;;;37.80;14.40;;;;;;;-142.75;100.00;77444.38;4967252;28;20056;-67
2022/12/21 05:11:08;;;;;;;25.00;14.18;;;;;;;-142.75;100.00;77448.34;4955043;28;20426;-66
2022/12/21 05:13:33;;;;;;;91.18;15.98;;;;;;;-142.75;100.00;77450.28;4970492;28;20037;-67
2022/12/21 05:16:07;;;;;;;26.85;13.75;;;;;;;-142.75;100.00;77440.44;4984809;28;20320;-67
2022/12/21 05:18:33;;;;;;;25.45;13.73;;;;;;;-142.75;100.00;77464.09;4978769;28;20076;-67
2022/12/21 05:20:59;;;;;;;37.88;14.15;;;;;;;-142.75;100.00;77458.16;4972886;28;20343;-67
2022/12/21 05:23:24;;;;;;;44.03;14.65;;;;;;;-142.75;100.00;77475.91;4974023;28;20199;-67
2022/12/21 05:25:50;;;;;;;35.90;14.82;;;;;;;-142.75;100.00;77470.00;4971067;28;20348;-67
2022/12/21 05:28:15;;;;;;;42.03;14.48;;;;;;;-142.75;100.00;77479.84;4981510;28;20441;-66
2022/12/21 05:30:40;;;;;;;39.13;14.77;;;;;;;-142.75;100.00;77464.09;4973240;28;20413;-67
2022/12/21 05:33:06;;;;;;;35.35;14.57;;;;;;;-142.75;100.00;77471.97;4977689;28;20376;-67
2022/12/21 05:35:32;;;;;;;81.68;15.82;;;;;;;-142.75;100.00;77481.81;4965734;28;20320;-67
2022/12/21 05:37:57;;;;;;;34.58;15.20;;;;;;;-142.75;100.00;77464.09;4977626;28;20326;-67
2022/12/21 05:40:23;;;;;;;32.15;14.75;;;;;;;-142.75;100.00;77458.16;4975997;28;20320;-67
2022/12/21 05:42:48;;;;;;;29.48;15.75;;;;;;;-142.75;100.00;77450.28;4984204;28;20316;-67
2022/12/21 05:45:14;;;;;;;33.85;14.70;;;;;;;-142.75;100.00;77442.41;4973220;28;20358;-67
2022/12/21 05:47:40;;;;;;;35.47;15.15;;;;;;;-142.75;100.00;77456.22;4961635;28;20430;-67
2022/12/21 05:50:06;;;;;;;;;;;;;;;-142.75;100.00;77444.38;4985561;28;20021;-67
2022/12/21 05:52:31;;;;;;;54.57;14.87;;;;;;;-142.75;100.00;77452.25;4963012;28;19932;-67
2022/12/21 05:54:57;;;;;;;45.92;15.07;;;;;;;-142.75;100.00;77454.25;4976983;28;20457;-67
2022/12/21 05:57:22;;;;;;;59.03;15.48;;;;;;;-142.75;100.00;77460.13;4965516;28;20339;-66
2022/12/21 05:59:48;;;;;;;34.38;15.95;;;;;;;-142.75;100.00;77464.09;4948523;28;20117;-67
2022/12/21 06:02:13;;;;;;;40.42;15.48;;;;;;;-142.75;100.00;77460.13;4973721;28;20406;-67
2022/12/21 06:04:39;;;;;;;40.33;16.98;;;;;;;-142.75;100.00;77464.09;4974511;28;20183;-67
2022/12/21 06:07:04;;;;;;;34.33;16.38;;;;;;;-142.75;100.00;77468.03;4972575;28;20337;-67
2022/12/21 06:09:30;;;;;;;42.58;16.73;;;;;;;-142.75;100.00;77460.13;4967819;28;20440;-67
2022/12/21 06:11:55;;;;;;;31.08;16.63;;;;;;;-142.75;100.00;77444.38;4951393;28;20343;-67
2022/12/21 06:14:21;;;;;;;41.25;17.40;;;;;;;-142.75;100.00;77460.13;4980112;28;20366;-66
2022/12/21 06:16:46;;;;;;;34.40;15.98;;;;;;;-142.75;100.00;77462.13;4976812;28;20344;-67
2022/12/21 06:19:12;;;;;;;28.67;14.80;;;;;;;-142.75;100.00;77471.97;4969840;28;20393;-67
2022/12/21 06:21:37;;;;;;;33.55;16.02;;;;;;;-142.75;100.00;77471.97;4968189;28;20530;-67
2022/12/21 06:24:03;;;;;;;37.40;14.63;;;;;;;-142.75;100.00;77462.13;4968302;28;20331;-67
2022/12/21 06:26:29;;;;;;;28.58;15.52;;;;;;;-142.75;100.00;77462.13;4973698;28;20311;-66
2022/12/21 06:28:54;;;;;;;71.47;16.83;;;;;;;-142.75;100.00;77466.03;4984167;28;20031;-66
2022/12/21 06:31:21;;;;;;;31.35;14.70;;;;;;;-142.75;100.00;77462.13;4975807;28;20334;-67
2022/12/21 06:33:47;;;;;;;27.97;14.07;;;;;;;-142.75;100.00;77444.38;4948555;28;20843;-67
2022/12/21 06:36:13;;;;;;;33.70;15.13;;;;;;;-142.75;100.00;77456.22;4977944;28;20139;-67
2022/12/21 06:38:39;;;;;;;50.93;15.33;;;;;;;-142.75;100.00;77462.13;4968261;28;20566;-67
2022/12/21 06:41:10;;;;;;;33.28;17.15;;;;;;;-142.75;100.00;77466.03;4968532;28;20082;-67
2022/12/21 06:43:38;;;;;;;35.33;16.13;;;;;;;-142.75;100.00;77475.91;4979392;28;20059;-67
2022/12/21 06:46:08;;;;;;;35.67;16.67;;;;;;;-142.75;100.00;77477.88;4970670;28;20048;-66
2022/12/21 06:48:35;;;;;;;32.53;16.87;;;;;;;-142.75;100.00;77475.91;4964639;28;20053;-67
2022/12/21 06:51:04;;;;;;;35.33;17.30;;;;;;;-142.75;100.00;77464.09;4979799;28;20087;-67
2022/12/21 06:53:31;;;;;;;35.73;16.73;;;;;;;-142.75;100.00;77481.81;4971121;28;20033;-67
2022/12/21 06:56:34;;;;;;;33.27;17.53;;;;;;;-142.75;100.00;77499.53;4946526;28;20051;-67
2022/12/21 06:58:59;;;;;;;32.73;16.60;;;;;;;-142.75;100.00;77499.53;4923433;28;20103;-67
2022/12/21 07:01:27;;;;;;;43.00;17.15;;;;;;;-142.75;100.00;77485.75;4980312;28;20382;-67
2022/12/21 07:03:53;;;;;;;33.77;16.20;;;;;;;-142.75;100.00;77491.66;4964493;28;20029;-67
2022/12/21 07:06:20;;;;;;;32.20;16.13;;;;;;;-142.75;100.00;77491.66;4954163;28;20455;-67
2022/12/21 07:08:47;;;;;;;38.97;17.38;;;;;;;-142.75;100.00;77487.72;4978010;28;20055;-67
2022/12/21 07:11:14;;;;;;;35.90;17.47;;;;;;;-142.75;100.00;77491.66;4971189;28;20029;-67
2022/12/21 07:13:42;;;;;;;32.53;16.27;;;;;;;-142.75;100.00;77481.81;4952776;28;20030;-67
2022/12/21 07:16:09;;;;;;;37.40;15.73;;;;;;;-142.75;100.00;77491.66;4970277;28;20596;-67
2022/12/21 07:18:35;;;;;;;43.42;17.13;;;;;;;-142.75;100.00;77483.78;4978169;28;20044;-67
2022/12/21 07:21:03;;;;;;;34.25;17.27;;;;;;;-142.75;100.00;77471.97;4967543;28;20044;-67
2022/12/21 07:23:34;;;;;;;32.37;15.30;;;;;;;-142.75;100.00;77475.91;4972009;28;20039;-67
2022/12/21 07:26:00;;;;;;;32.33;14.95;;;;;;;-142.75;100.00;77460.13;4974675;28;20612;-65
2022/12/21 07:28:25;;;;;;;30.05;14.77;;;;;;;-142.75;100.00;77448.34;4972949;28;20028;-67
2022/12/21 07:31:05;;;;;;;34.13;14.73;;;;;;;-142.75;100.00;77444.38;4976252;28;20342;-66
2022/12/21 07:33:31;;;;;;;28.35;14.27;;;;;;;-142.75;100.00;77446.34;4958507;28;20143;-67
2022/12/21 07:35:59;;;;;;;30.77;15.32;;;;;;;-142.75;100.00;77424.69;4945761;28;20064;-67
2022/12/21 07:38:26;;;;;;;30.70;14.75;;;;;;;-142.75;100.00;77436.50;4966266;28;20127;-67
2022/12/21 07:40:57;;;;;;;32.63;13.90;;;;;;;-142.75;100.00;77440.44;4959691;28;20592;-66
2022/12/21 07:43:23;;;;;;;31.87;13.73;;;;;;;-142.75;100.00;77464.09;4966103;28;20546;-66
2022/12/21 07:45:48;;;;;;;34.70;12.75;;;;;;;-142.75;100.00;77471.97;4967671;28;20025;-67
2022/12/21 07:48:14;;;;;;;28.13;12.18;;;;;;;-142.75;100.00;77468.03;4985692;28;20343;-67
2022/12/21 07:50:40;;;;;;;;;;;;;;;-142.75;100.00;77460.13;4979224;28;20021;-67
2022/12/21 07:53:05;;;;;;;33.25;12.52;;;;;;;-142.75;100.00;77473.94;4969277;28;20087;-67
2022/12/21 07:55:31;;;;;;;26.75;12.27;;;;;;;-142.75;100.00;77475.91;4972677;28;20179;-67
2022/12/21 07:57:57;;;;;;;;;;;;;;;-142.75;100.00;77464.09;4975176;28;20024;-67
2022/12/21 08:00:23;;;;;;;21.40;10.73;;;;;;;-142.75;100.00;77477.88;4959380;28;20212;-65
2022/12/21 08:02:50;;;;;;;;;;;;;;;-142.75;100.00;77468.03;4966111;28;20038;-66
2022/12/21 08:05:16;;;;;;;23.73;11.10;;;;;;;-142.75;100.00;77471.97;4975484;28;20525;-63
2022/12/21 08:07:41;;;;;;;;;;;;;;;-142.75;100.00;77462.13;4976531;28;20029;-66
2022/12/21 08:10:07;;;;;;;28.47;11.77;;;;;;;-142.75;100.00;77464.09;4977352;28;20275;-66
2022/12/21 08:12:33;;;;;;;22.02;11.13;;;;;;;-142.75;100.00;77473.94;4976908;28;20544;-65
2022/12/21 08:14:59;;;;;;;25.38;11.25;;;;;;;-142.75;100.00;77468.03;4982880;28;20021;-66
2022/12/21 08:17:24;;;;;;;24.60;11.00;;;;;;;-142.75;100.00;77475.91;5000331;23;20329;-67
2022/12/21 08:19:50;;;;;;;21.10;12.20;;;;;;;-142.75;100.00;77464.09;5017263;28;20318;-67
2022/12/21 08:22:15;;;;;;;19.80;10.90;;;;;;;-142.75;100.00;77452.25;5008068;28;20338;-66
2022/12/21 08:24:41;;;;;;;24.20;12.23;;;;;;;-142.75;100.00;77448.34;5019176;28;20337;-66
2022/12/21 08:27:06;;;;;;;26.67;11.98;;;;;;;-142.75;100.00;77452.25;5001075;28;20427;-67
2022/12/21 08:29:32;;;;;;;29.40;11.35;;;;;;;-142.75;100.00;77432.56;5011806;28;20331;-67
2022/12/21 08:31:58;;;;;;;36.65;12.23;;;;;;;-142.75;100.00;77428.63;5017128;28;20357;-65
2022/12/21 08:34:23;;;;;;;26.25;11.95;;;;;;;-142.75;100.00;77446.34;5023617;28;20445;-64
2022/12/21 08:36:49;;;;;;;21.08;12.07;;;;;;;-142.75;100.00;77448.34;4996844;28;20303;-65
2022/12/21 08:39:14;;;;;;;27.50;12.18;;;;;;;-142.75;100.00;77452.25;5004537;28;20178;-67
2022/12/21 08:41:40;;;;;;;28.05;10.40;;;;;;;-142.75;100.00;77460.13;5011089;28;20308;-67
2022/12/21 08:44:06;;;;;;;34.15;13.05;;;;;;;-142.75;100.00;77458.16;5004530;28;20031;-66
2022/12/21 08:46:32;;;;;;;27.35;16.00;;;;;;;-142.75;100.00;77454.25;5004403;28;20327;-67
2022/12/21 08:48:58;;;;;;;24.00;12.07;;;;;;;-142.75;100.00;77464.09;5008493;28;20028;-67
2022/12/21 08:51:24;;;;;;;32.70;13.35;;;;;;;-142.75;100.00;77475.91;5022649;28;20224;-66
2022/12/21 08:53:49;;;;;;;25.38;13.52;;;;;;;-142.75;100.00;77464.09;5005298;28;20032;-67
2022/12/21 08:56:15;;;;;;;24.63;13.50;;;;;;;-142.75;100.00;77464.09;5021463;28;20362;-66
2022/12/21 08:58:41;;;;;;;24.95;12.35;;;;;;;-142.75;100.00;77470.00;5060813;28;20028;-66
2022/12/21 09:01:06;;;;;;;22.92;12.32;;;;;;;-142.75;100.00;77468.03;5070377;28;20226;-66
2022/12/21 09:03:31;;;;;;;25.67;11.85;;;;;;;-142.75;100.00;77466.03;5063423;28;20021;-66
2022/12/21 09:05:59;;;;;;;26.23;11.20;;;;;;;-142.75;100.00;77448.34;5067059;28;20028;-66
2022/12/21 09:08:25;;;;;;;24.57;11.40;;;;;;;-142.75;100.00;77440.44;5066821;28;20116;-66
2022/12/21 09:11:12;;;;;;;29.75;11.27;;;;;;;-142.75;100.00;77428.63;5068033;28;20426;-67
2022/12/21 09:13:38;;;;;;;21.70;10.73;;;;;;;-142.75;100.00;77418.78;5067532;28;20028;-67
2022/12/21 09:16:18;;;;;;;27.63;11.48;;;;;;;-142.75;100.00;77428.63;5069995;28;20028;-66
2022/12/21 09:18:44;;;;;;;25.27;11.10;;;;;;;-142.75;100.00;77438.47;5008896;28;20024;-67
2022/12/21 09:21:11;;;;;;;25.40;10.20;;;;;;;-142.75;100.00;77444.38;4999470;28;20095;-65
2022/12/21 09:23:37;;;;;;;22.43;10.33;;;;;;;-142.75;100.00;77418.78;4997163;28;20020;-66
2022/12/21 09:26:05;;;;;;;27.97;11.40;;;;;;;-142.75;100.00;77389.25;5012273;28;20064;-66
2022/12/21 09:28:31;;;;;;;26.08;10.57;;;;;;;-142.75;100.00;77393.19;5000840;28;20028;-65
2022/12/21 09:31:06;;;;;;;24.33;10.35;;;;;;;-142.75;100.00;77338.06;5009022;28;20293;-65
2022/12/21 09:33:32;;;;;;;23.30;9.95;;;;;;;-142.75;100.00;77310.50;5020247;28;20048;-66
2022/12/21 09:35:57;;;;;;;24.65;10.63;;;;;;;-142.75;100.00;77302.63;5021558;28;20390;-65
2022/12/21 09:38:22;;;;;;;23.42;9.43;;;;;;;-142.75;100.00;77330.19;5013085;28;20131;-65
2022/12/21 09:40:48;;;;;;;24.92;9.43;;;;;;;-142.75;100.00;77310.50;5013948;28;20317;-66
2022/12/21 09:43:42;;;;;;;22.80;9.00;;;;;;;-142.75;100.00;77310.50;5021014;28;20318;-65
2022/12/21 09:46:11;;;;;;;19.98;8.60;;;;;;;-142.75;100.00;77340.03;5000239;28;20553;-66
2022/12/21 09:48:58;;;;;;;21.65;8.63;;;;;;;-142.75;100.00;77373.50;5003829;28;20696;-66
2022/12/21 09:51:25;;;;;;;22.20;8.07;;;;;;;-142.75;100.00;77393.19;5007045;28;20054;-67
2022/12/21 09:54:05;;;;;;;17.13;9.23;;;;;;;-142.75;100.00;77393.19;5010511;28;20109;-66
2022/12/21 09:56:42;;;;;;;23.92;10.10;;;;;;;-142.75;100.00;77408.94;4987734;28;20058;-67
2022/12/21 09:59:13;;;;;;;19.10;8.90;;;;;;;-142.75;100.00;77408.94;5011061;28;20560;-66
2022/12/21 10:02:00;;;;;;;17.90;9.57;;;;;;;-142.75;100.00;77426.66;5013661;28;20043;-66
2022/12/21 10:05:03;;;;;;;17.35;8.80;;;;;;;-142.75;100.00;77440.44;5022014;28;20028;-65
2022/12/21 10:07:47;;;;;;;23.55;10.35;;;;;;;-142.75;100.00;77432.56;5013961;28;20055;-67
2022/12/21 10:10:19;;;;;;;24.80;11.60;;;;;;;-142.75;100.00;77440.44;4995337;28;20035;-67
2022/12/21 10:12:51;;;;;;;26.55;12.20;;;;;;;-142.75;100.00;77432.56;5020166;28;20674;-67
2022/12/21 10:15:19;;;;;;;39.08;13.25;;;;;;;-142.75;100.00;77430.59;5010107;28;20530;-64
2022/12/21 10:17:45;;;;;;;27.25;14.05;;;;;;;-142.75;100.00;77434.53;5003916;28;20051;-65
2022/12/21 10:20:42;;;;;;;39.20;14.10;;;;;;;-142.75;100.00;77424.69;4998927;28;20342;-66
2022/12/21 10:23:19;;;;;;;30.75;14.13;;;;;;;-142.75;100.00;77426.66;4996501;28;20109;-66
2022/12/21 10:25:47;;;;;;;35.10;15.13;;;;;;;-142.75;100.00;77432.56;5016255;28;20561;-66
2022/12/21 10:28:33;;;;;;;34.20;13.87;;;;;;;-142.75;100.00;77460.13;5012385;28;20029;-65
2022/12/21 10:31:07;;;;;;;31.90;14.55;;;;;;;-142.75;100.00;77454.25;4973977;28;20045;-66
2022/12/21 10:33:41;;;;;;;34.50;15.17;;;;;;;-142.75;100.00;77473.94;5010492;28;20051;-67
2022/12/21 10:36:15;;;;;;;30.95;15.38;;;;;;;-142.75;100.00;77471.97;5017626;28;20630;-66
2022/12/21 10:38:41;;;;;;;37.90;17.27;;;;;;;-142.75;100.00;77468.03;5008794;28;20019;-66
2022/12/21 10:41:17;;;;;;;37.53;16.48;;;;;;;-142.75;100.00;77462.13;5026800;28;20306;-67
2022/12/21 10:43:48;;;;;;;31.98;14.85;;;;;;;-142.75;100.00;77468.03;5022878;28;20044;-67
2022/12/21 10:46:18;;;;;;;43.57;16.10;;;;;;;-142.75;100.00;77464.09;5009804;28;20101;-67
2022/12/21 10:48:46;;;;;;;35.60;15.40;;;;;;;-142.75;100.00;77468.03;5018224;28;20040;-66
2022/12/21 10:51:27;;;;;;;32.30;15.53;;;;;;;-142.75;100.00;77466.03;5009991;28;20036;-67
2022/12/21 10:53:58;;;;;;;34.30;16.10;;;;;;;-142.75;100.00;77485.75;4989828;28;20055;-67
2022/12/21 10:56:25;;;;;;;28.90;13.82;;;;;;;-142.75;100.00;77470.00;5022654;28;20032;-68
2022/12/21 10:58:53;;;;;;;34.70;15.68;;;;;;;-142.75;100.00;77481.81;5018231;28;20139;-66
2022/12/21 11:01:27;;;;;;;40.40;16.83;;;;;;;-142.75;100.00;77473.94;5016778;28;20032;-66
2022/12/21 11:04:07;;;;;;;42.43;16.27;;;;;;;-142.75;100.00;77483.78;5008538;28;20024;-65
2022/12/21 11:06:33;;;;;;;39.65;15.32;;;;;;;-142.75;100.00;77485.75;5006422;28;20031;-65
2022/12/21 11:08:59;;;;;;;37.60;16.35;;;;;;;-142.75;100.00;77501.50;5006239;28;20387;-66
2022/12/21 11:11:32;;;;;;;45.35;18.15;;;;;;;-142.75;100.00;77487.72;5006021;28;20338;-67
2022/12/21 11:14:12;;;;;;;42.73;16.40;;;;;;;-142.75;100.00;77475.91;5020824;28;20063;-68
2022/12/21 11:16:37;;;;;;;47.80;17.87;;;;;;;-142.75;100.00;77473.94;5009637;28;20154;-68
2022/12/21 11:19:03;;;;;;;48.10;19.17;;;;;;;-142.75;100.00;77491.66;5006038;28;20263;-68
2022/12/21 11:21:35;;;;;;;46.60;18.63;;;;;;;-142.75;100.00;77481.81;4995156;28;20415;-66
2022/12/21 11:24:21;;;;;;;47.77;18.53;;;;;;;-142.75;100.00;77473.94;5011906;28;20773;-66
2022/12/21 11:26:57;;;;;;;45.90;19.77;;;;;;;-142.75;100.00;77477.88;5016701;28;20024;-66
2022/12/21 11:29:29;;;;;;;47.83;17.17;;;;;;;-142.75;100.00;77458.16;5022190;28;20055;-67